sensor_id;sensor_type;location;lat;lon;timestamp;P1;durP1;ratioP1;P2;durP2;ratioP2
60336;SDS011;46978;50.288;28.624;2022-10-16T00:00:36;18.88;;;11.57;;
60336;SDS011;46978;50.288;28.624;2022-10-16T00:01:39;17.74;;;11.33;;
60336;SDS011;46978;50.288;28.624;2022-10-16T00:02:41;19.48;;;10.52;;
60336;SDS011;46978;50.288;28.624;2022-10-16T00:03:43;19.29;;;11.31;;
60336;SDS011;46978;50.288;28.624;2022-10-16T00:04:46;21.72;;;11.28;;
60336;SDS011;46978;50.288;28.624;2022-10-16T00:05:47;19.23;;;10.95;;
60336;SDS011;46978;50.288;28.624;2022-10-16T00:06:49;18.03;;;10.64;;
60336;SDS011;46978;50.288;28.624;2022-10-16T00:07:51;20.51;;;10.62;;
60336;SDS011;46978;50.288;28.624;2022-10-16T00:08:53;16.16;;;10.20;;
60336;SDS011;46978;50.288;28.624;2022-10-16T00:09:54;18.70;;;10.77;;
60336;SDS011;46978;50.288;28.624;2022-10-16T00:11:03;19.08;;;10.59;;
60336;SDS011;46978;50.288;28.624;2022-10-16T00:12:10;18.42;;;10.49;;
60336;SDS011;46978;50.288;28.624;2022-10-16T00:13:11;17.80;;;10.38;;
60336;SDS011;46978;50.288;28.624;2022-10-16T00:14:13;18.81;;;11.38;;
60336;SDS011;46978;50.288;28.624;2022-10-16T00:15:16;19.88;;;11.08;;
60336;SDS011;46978;50.288;28.624;2022-10-16T00:16:18;18.11;;;11.07;;
60336;SDS011;46978;50.288;28.624;2022-10-16T00:17:20;16.59;;;10.39;;
60336;SDS011;46978;50.288;28.624;2022-10-16T00:18:22;17.94;;;10.26;;
60336;SDS011;46978;50.288;28.624;2022-10-16T00:19:24;17.39;;;10.27;;
60336;SDS011;46978;50.288;28.624;2022-10-16T00:20:26;16.47;;;10.16;;
60336;SDS011;46978;50.288;28.624;2022-10-16T00:21:28;18.94;;;10.41;;
60336;SDS011;46978;50.288;28.624;2022-10-16T00:22:32;20.01;;;11.19;;
60336;SDS011;46978;50.288;28.624;2022-10-16T00:23:34;16.56;;;10.76;;
60336;SDS011;46978;50.288;28.624;2022-10-16T00:24:36;17.43;;;10.49;;
60336;SDS011;46978;50.288;28.624;2022-10-16T00:25:38;18.74;;;11.17;;
60336;SDS011;46978;50.288;28.624;2022-10-16T00:26:40;17.36;;;10.69;;
60336;SDS011;46978;50.288;28.624;2022-10-16T00:27:42;18.55;;;10.68;;
60336;SDS011;46978;50.288;28.624;2022-10-16T00:28:47;18.92;;;11.17;;
60336;SDS011;46978;50.288;28.624;2022-10-16T00:29:50;17.73;;;10.16;;
60336;SDS011;46978;50.288;28.624;2022-10-16T00:30:53;19.44;;;11.19;;
60336;SDS011;46978;50.288;28.624;2022-10-16T00:31:55;17.13;;;9.85;;
60336;SDS011;46978;50.288;28.624;2022-10-16T00:32:57;18.55;;;10.94;;
60336;SDS011;46978;50.288;28.624;2022-10-16T00:33:58;17.84;;;10.56;;
60336;SDS011;46978;50.288;28.624;2022-10-16T00:35:00;20.20;;;10.09;;
60336;SDS011;46978;50.288;28.624;2022-10-16T00:36:02;16.72;;;9.53;;
60336;SDS011;46978;50.288;28.624;2022-10-16T00:37:06;19.05;;;10.58;;
60336;SDS011;46978;50.288;28.624;2022-10-16T00:38:07;17.64;;;10.16;;
60336;SDS011;46978;50.288;28.624;2022-10-16T00:39:09;17.92;;;10.26;;
60336;SDS011;46978;50.288;28.624;2022-10-16T00:40:11;21.88;;;10.79;;
60336;SDS011;46978;50.288;28.624;2022-10-16T00:41:14;15.97;;;9.82;;
60336;SDS011;46978;50.288;28.624;2022-10-16T00:42:18;19.19;;;10.62;;
60336;SDS011;46978;50.288;28.624;2022-10-16T00:43:34;18.62;;;10.05;;
60336;SDS011;46978;50.288;28.624;2022-10-16T00:45:54;17.13;;;9.87;;
60336;SDS011;46978;50.288;28.624;2022-10-16T00:46:56;20.13;;;11.14;;
60336;SDS011;46978;50.288;28.624;2022-10-16T00:47:58;16.50;;;10.36;;
60336;SDS011;46978;50.288;28.624;2022-10-16T00:49:01;19.74;;;10.81;;
60336;SDS011;46978;50.288;28.624;2022-10-16T00:50:27;21.61;;;11.47;;
60336;SDS011;46978;50.288;28.624;2022-10-16T00:51:36;18.04;;;10.49;;
60336;SDS011;46978;50.288;28.624;2022-10-16T00:52:48;18.73;;;11.02;;
60336;SDS011;46978;50.288;28.624;2022-10-16T00:53:52;22.26;;;11.83;;
60336;SDS011;46978;50.288;28.624;2022-10-16T00:54:54;22.08;;;11.19;;
60336;SDS011;46978;50.288;28.624;2022-10-16T00:55:57;18.28;;;10.98;;
60336;SDS011;46978;50.288;28.624;2022-10-16T00:57:00;19.93;;;11.23;;
60336;SDS011;46978;50.288;28.624;2022-10-16T00:58:04;22.26;;;11.98;;
60336;SDS011;46978;50.288;28.624;2022-10-16T00:59:07;17.80;;;11.13;;
60336;SDS011;46978;50.288;28.624;2022-10-16T01:00:14;18.68;;;11.44;;
60336;SDS011;46978;50.288;28.624;2022-10-16T01:01:18;21.15;;;11.09;;
60336;SDS011;46978;50.288;28.624;2022-10-16T01:02:19;21.04;;;11.61;;
60336;SDS011;46978;50.288;28.624;2022-10-16T01:03:26;20.16;;;12.14;;
60336;SDS011;46978;50.288;28.624;2022-10-16T01:05:39;18.43;;;11.40;;
60336;SDS011;46978;50.288;28.624;2022-10-16T01:06:49;24.02;;;12.57;;
60336;SDS011;46978;50.288;28.624;2022-10-16T01:09:17;20.94;;;11.11;;
60336;SDS011;46978;50.288;28.624;2022-10-16T01:10:39;21.28;;;11.90;;
60336;SDS011;46978;50.288;28.624;2022-10-16T01:13:19;20.47;;;11.78;;
60336;SDS011;46978;50.288;28.624;2022-10-16T01:14:27;19.39;;;12.00;;
60336;SDS011;46978;50.288;28.624;2022-10-16T01:16:51;20.08;;;12.87;;
60336;SDS011;46978;50.288;28.624;2022-10-16T01:19:09;19.18;;;12.27;;
60336;SDS011;46978;50.288;28.624;2022-10-16T01:20:26;20.19;;;12.64;;
60336;SDS011;46978;50.288;28.624;2022-10-16T01:21:42;21.91;;;12.37;;
60336;SDS011;46978;50.288;28.624;2022-10-16T01:24:33;21.06;;;12.79;;
60336;SDS011;46978;50.288;28.624;2022-10-16T01:28:05;19.36;;;12.23;;
60336;SDS011;46978;50.288;28.624;2022-10-16T01:30:26;21.22;;;12.76;;
60336;SDS011;46978;50.288;28.624;2022-10-16T01:31:31;22.41;;;11.93;;
60336;SDS011;46978;50.288;28.624;2022-10-16T01:33:45;22.83;;;12.72;;
60336;SDS011;46978;50.288;28.624;2022-10-16T01:34:50;19.70;;;12.11;;
60336;SDS011;46978;50.288;28.624;2022-10-16T01:35:55;23.36;;;13.04;;
60336;SDS011;46978;50.288;28.624;2022-10-16T01:37:07;20.80;;;12.29;;
60336;SDS011;46978;50.288;28.624;2022-10-16T01:38:19;22.86;;;13.10;;
60336;SDS011;46978;50.288;28.624;2022-10-16T01:39:23;20.48;;;12.72;;
60336;SDS011;46978;50.288;28.624;2022-10-16T01:40:28;20.62;;;11.96;;
60336;SDS011;46978;50.288;28.624;2022-10-16T01:41:35;22.66;;;13.08;;
60336;SDS011;46978;50.288;28.624;2022-10-16T01:42:40;22.36;;;12.47;;
60336;SDS011;46978;50.288;28.624;2022-10-16T01:45:07;20.78;;;12.22;;
60336;SDS011;46978;50.288;28.624;2022-10-16T01:46:12;19.14;;;12.91;;
60336;SDS011;46978;50.288;28.624;2022-10-16T01:47:15;22.27;;;13.39;;
60336;SDS011;46978;50.288;28.624;2022-10-16T01:48:20;21.91;;;12.58;;
60336;SDS011;46978;50.288;28.624;2022-10-16T01:49:24;21.57;;;12.60;;
60336;SDS011;46978;50.288;28.624;2022-10-16T01:50:29;19.99;;;12.58;;
60336;SDS011;46978;50.288;28.624;2022-10-16T01:51:32;23.77;;;13.76;;
60336;SDS011;46978;50.288;28.624;2022-10-16T01:52:35;29.66;;;13.06;;
60336;SDS011;46978;50.288;28.624;2022-10-16T01:53:40;20.09;;;12.68;;
60336;SDS011;46978;50.288;28.624;2022-10-16T01:54:45;21.51;;;12.37;;
60336;SDS011;46978;50.288;28.624;2022-10-16T01:55:50;22.63;;;13.09;;
60336;SDS011;46978;50.288;28.624;2022-10-16T01:56:55;19.96;;;12.51;;
60336;SDS011;46978;50.288;28.624;2022-10-16T01:57:59;19.37;;;12.37;;
60336;SDS011;46978;50.288;28.624;2022-10-16T01:59:05;21.74;;;12.12;;
60336;SDS011;46978;50.288;28.624;2022-10-16T02:00:10;20.67;;;12.50;;
60336;SDS011;46978;50.288;28.624;2022-10-16T02:01:15;21.23;;;12.54;;
60336;SDS011;46978;50.288;28.624;2022-10-16T02:02:20;18.26;;;12.25;;
60336;SDS011;46978;50.288;28.624;2022-10-16T02:03:23;18.14;;;11.67;;
60336;SDS011;46978;50.288;28.624;2022-10-16T02:04:29;18.85;;;11.78;;
60336;SDS011;46978;50.288;28.624;2022-10-16T02:05:41;22.77;;;12.54;;
60336;SDS011;46978;50.288;28.624;2022-10-16T02:06:56;18.89;;;11.88;;
60336;SDS011;46978;50.288;28.624;2022-10-16T02:07:59;20.97;;;11.80;;
60336;SDS011;46978;50.288;28.624;2022-10-16T02:09:01;18.42;;;11.35;;
60336;SDS011;46978;50.288;28.624;2022-10-16T02:10:03;18.11;;;11.71;;
60336;SDS011;46978;50.288;28.624;2022-10-16T02:11:06;19.53;;;11.79;;
60336;SDS011;46978;50.288;28.624;2022-10-16T02:12:09;17.73;;;10.82;;
60336;SDS011;46978;50.288;28.624;2022-10-16T02:13:21;23.71;;;12.62;;
60336;SDS011;46978;50.288;28.624;2022-10-16T02:14:27;22.14;;;12.58;;
60336;SDS011;46978;50.288;28.624;2022-10-16T02:15:30;21.59;;;12.35;;
60336;SDS011;46978;50.288;28.624;2022-10-16T02:16:32;16.83;;;11.37;;
60336;SDS011;46978;50.288;28.624;2022-10-16T02:17:36;17.25;;;11.59;;
60336;SDS011;46978;50.288;28.624;2022-10-16T02:18:38;20.27;;;11.51;;
60336;SDS011;46978;50.288;28.624;2022-10-16T02:19:41;22.58;;;12.96;;
60336;SDS011;46978;50.288;28.624;2022-10-16T02:20:55;18.94;;;11.71;;
60336;SDS011;46978;50.288;28.624;2022-10-16T02:22:03;17.35;;;11.55;;
60336;SDS011;46978;50.288;28.624;2022-10-16T02:23:04;20.56;;;11.37;;
60336;SDS011;46978;50.288;28.624;2022-10-16T02:24:09;17.95;;;11.15;;
60336;SDS011;46978;50.288;28.624;2022-10-16T02:25:34;19.03;;;10.74;;
60336;SDS011;46978;50.288;28.624;2022-10-16T02:26:45;20.27;;;11.35;;
60336;SDS011;46978;50.288;28.624;2022-10-16T02:29:13;18.48;;;10.96;;
60336;SDS011;46978;50.288;28.624;2022-10-16T02:31:29;19.86;;;11.80;;
60336;SDS011;46978;50.288;28.624;2022-10-16T02:32:35;16.87;;;11.44;;
60336;SDS011;46978;50.288;28.624;2022-10-16T02:33:39;17.53;;;11.09;;
60336;SDS011;46978;50.288;28.624;2022-10-16T02:34:44;19.45;;;11.07;;
60336;SDS011;46978;50.288;28.624;2022-10-16T02:35:48;17.96;;;10.84;;
60336;SDS011;46978;50.288;28.624;2022-10-16T02:36:51;18.83;;;11.85;;
60336;SDS011;46978;50.288;28.624;2022-10-16T02:37:54;21.36;;;12.56;;
60336;SDS011;46978;50.288;28.624;2022-10-16T02:38:57;16.55;;;10.93;;
60336;SDS011;46978;50.288;28.624;2022-10-16T02:39:59;21.95;;;11.93;;
60336;SDS011;46978;50.288;28.624;2022-10-16T02:41:02;19.04;;;12.01;;
60336;SDS011;46978;50.288;28.624;2022-10-16T02:42:09;18.74;;;11.61;;
60336;SDS011;46978;50.288;28.624;2022-10-16T02:43:15;21.34;;;12.01;;
60336;SDS011;46978;50.288;28.624;2022-10-16T02:44:17;19.37;;;12.36;;
60336;SDS011;46978;50.288;28.624;2022-10-16T02:45:19;19.25;;;11.93;;
60336;SDS011;46978;50.288;28.624;2022-10-16T02:46:21;20.42;;;11.91;;
60336;SDS011;46978;50.288;28.624;2022-10-16T02:47:23;19.59;;;11.85;;
60336;SDS011;46978;50.288;28.624;2022-10-16T02:48:25;21.59;;;11.75;;
60336;SDS011;46978;50.288;28.624;2022-10-16T02:49:26;19.96;;;12.37;;
60336;SDS011;46978;50.288;28.624;2022-10-16T02:50:28;20.64;;;12.34;;
60336;SDS011;46978;50.288;28.624;2022-10-16T02:51:30;21.26;;;12.74;;
60336;SDS011;46978;50.288;28.624;2022-10-16T02:52:31;18.89;;;11.93;;
60336;SDS011;46978;50.288;28.624;2022-10-16T02:53:33;18.81;;;12.10;;
60336;SDS011;46978;50.288;28.624;2022-10-16T02:54:35;19.16;;;11.77;;
60336;SDS011;46978;50.288;28.624;2022-10-16T02:55:37;20.37;;;12.41;;
60336;SDS011;46978;50.288;28.624;2022-10-16T02:56:38;18.93;;;11.99;;
60336;SDS011;46978;50.288;28.624;2022-10-16T02:57:40;19.84;;;12.11;;
60336;SDS011;46978;50.288;28.624;2022-10-16T02:58:42;19.30;;;12.29;;
60336;SDS011;46978;50.288;28.624;2022-10-16T02:59:44;20.94;;;12.29;;
60336;SDS011;46978;50.288;28.624;2022-10-16T03:00:46;20.31;;;12.56;;
60336;SDS011;46978;50.288;28.624;2022-10-16T03:01:48;17.49;;;10.93;;
60336;SDS011;46978;50.288;28.624;2022-10-16T03:02:49;20.44;;;12.36;;
60336;SDS011;46978;50.288;28.624;2022-10-16T03:03:51;20.13;;;12.09;;
60336;SDS011;46978;50.288;28.624;2022-10-16T03:04:53;21.23;;;12.71;;
60336;SDS011;46978;50.288;28.624;2022-10-16T03:05:55;23.81;;;13.23;;
60336;SDS011;46978;50.288;28.624;2022-10-16T03:06:57;20.73;;;12.15;;
60336;SDS011;46978;50.288;28.624;2022-10-16T03:07:58;22.66;;;12.56;;
60336;SDS011;46978;50.288;28.624;2022-10-16T03:09:00;19.87;;;12.69;;
60336;SDS011;46978;50.288;28.624;2022-10-16T03:10:02;20.85;;;12.86;;
60336;SDS011;46978;50.288;28.624;2022-10-16T03:11:04;19.15;;;12.37;;
60336;SDS011;46978;50.288;28.624;2022-10-16T03:12:06;19.91;;;12.40;;
60336;SDS011;46978;50.288;28.624;2022-10-16T03:13:08;19.95;;;11.83;;
60336;SDS011;46978;50.288;28.624;2022-10-16T03:14:10;21.73;;;12.45;;
60336;SDS011;46978;50.288;28.624;2022-10-16T03:15:12;20.69;;;12.49;;
60336;SDS011;46978;50.288;28.624;2022-10-16T03:16:13;18.02;;;11.81;;
60336;SDS011;46978;50.288;28.624;2022-10-16T03:17:15;22.44;;;13.49;;
60336;SDS011;46978;50.288;28.624;2022-10-16T03:18:17;18.77;;;12.22;;
60336;SDS011;46978;50.288;28.624;2022-10-16T03:19:19;21.71;;;12.86;;
60336;SDS011;46978;50.288;28.624;2022-10-16T03:20:20;21.13;;;13.20;;
60336;SDS011;46978;50.288;28.624;2022-10-16T03:21:22;21.14;;;12.51;;
60336;SDS011;46978;50.288;28.624;2022-10-16T03:22:24;18.66;;;12.43;;
60336;SDS011;46978;50.288;28.624;2022-10-16T03:23:26;21.72;;;12.69;;
60336;SDS011;46978;50.288;28.624;2022-10-16T03:24:27;18.97;;;11.70;;
60336;SDS011;46978;50.288;28.624;2022-10-16T03:25:29;20.66;;;12.36;;
60336;SDS011;46978;50.288;28.624;2022-10-16T03:26:31;21.16;;;13.19;;
60336;SDS011;46978;50.288;28.624;2022-10-16T03:27:32;19.91;;;12.15;;
60336;SDS011;46978;50.288;28.624;2022-10-16T03:28:34;21.36;;;12.29;;
60336;SDS011;46978;50.288;28.624;2022-10-16T03:29:36;22.03;;;12.15;;
60336;SDS011;46978;50.288;28.624;2022-10-16T03:30:38;19.44;;;11.71;;
60336;SDS011;46978;50.288;28.624;2022-10-16T03:31:40;20.13;;;11.61;;
60336;SDS011;46978;50.288;28.624;2022-10-16T03:32:43;20.56;;;11.74;;
60336;SDS011;46978;50.288;28.624;2022-10-16T03:33:45;21.79;;;12.34;;
60336;SDS011;46978;50.288;28.624;2022-10-16T03:34:47;18.00;;;11.23;;
60336;SDS011;46978;50.288;28.624;2022-10-16T03:35:52;19.75;;;11.88;;
60336;SDS011;46978;50.288;28.624;2022-10-16T03:36:55;20.79;;;12.63;;
60336;SDS011;46978;50.288;28.624;2022-10-16T03:37:57;19.21;;;11.70;;
60336;SDS011;46978;50.288;28.624;2022-10-16T03:38:58;18.86;;;12.05;;
60336;SDS011;46978;50.288;28.624;2022-10-16T03:40:00;20.64;;;12.09;;
60336;SDS011;46978;50.288;28.624;2022-10-16T03:41:02;18.09;;;12.07;;
60336;SDS011;46978;50.288;28.624;2022-10-16T03:42:04;19.47;;;11.67;;
60336;SDS011;46978;50.288;28.624;2022-10-16T03:43:05;18.64;;;11.43;;
60336;SDS011;46978;50.288;28.624;2022-10-16T03:44:07;17.92;;;11.64;;
60336;SDS011;46978;50.288;28.624;2022-10-16T03:45:09;20.28;;;11.62;;
60336;SDS011;46978;50.288;28.624;2022-10-16T03:46:12;20.41;;;11.62;;
60336;SDS011;46978;50.288;28.624;2022-10-16T03:47:14;18.16;;;11.74;;
60336;SDS011;46978;50.288;28.624;2022-10-16T03:48:15;19.11;;;11.84;;
60336;SDS011;46978;50.288;28.624;2022-10-16T03:49:17;19.50;;;11.82;;
60336;SDS011;46978;50.288;28.624;2022-10-16T03:50:19;19.35;;;10.79;;
60336;SDS011;46978;50.288;28.624;2022-10-16T03:51:21;19.56;;;12.00;;
60336;SDS011;46978;50.288;28.624;2022-10-16T03:52:22;17.90;;;11.90;;
60336;SDS011;46978;50.288;28.624;2022-10-16T03:53:24;18.13;;;12.17;;
60336;SDS011;46978;50.288;28.624;2022-10-16T03:54:26;19.19;;;11.78;;
60336;SDS011;46978;50.288;28.624;2022-10-16T03:55:28;21.61;;;12.86;;
60336;SDS011;46978;50.288;28.624;2022-10-16T03:56:30;20.75;;;11.85;;
60336;SDS011;46978;50.288;28.624;2022-10-16T03:57:31;19.28;;;11.74;;
60336;SDS011;46978;50.288;28.624;2022-10-16T03:58:33;17.66;;;11.81;;
60336;SDS011;46978;50.288;28.624;2022-10-16T03:59:35;17.83;;;10.84;;
60336;SDS011;46978;50.288;28.624;2022-10-16T04:00:40;20.39;;;11.36;;
60336;SDS011;46978;50.288;28.624;2022-10-16T04:01:43;19.95;;;11.60;;
60336;SDS011;46978;50.288;28.624;2022-10-16T04:02:45;20.06;;;11.71;;
60336;SDS011;46978;50.288;28.624;2022-10-16T04:03:47;20.25;;;12.46;;
60336;SDS011;46978;50.288;28.624;2022-10-16T04:04:48;21.87;;;12.09;;
60336;SDS011;46978;50.288;28.624;2022-10-16T04:05:50;19.69;;;11.89;;
60336;SDS011;46978;50.288;28.624;2022-10-16T04:06:52;19.04;;;11.66;;
60336;SDS011;46978;50.288;28.624;2022-10-16T04:07:54;21.48;;;11.96;;
60336;SDS011;46978;50.288;28.624;2022-10-16T04:08:56;21.51;;;12.44;;
60336;SDS011;46978;50.288;28.624;2022-10-16T04:09:57;19.30;;;12.42;;
60336;SDS011;46978;50.288;28.624;2022-10-16T04:10:59;20.15;;;11.94;;
60336;SDS011;46978;50.288;28.624;2022-10-16T04:12:01;20.69;;;11.58;;
60336;SDS011;46978;50.288;28.624;2022-10-16T04:13:02;19.03;;;12.09;;
60336;SDS011;46978;50.288;28.624;2022-10-16T04:14:04;20.52;;;11.93;;
60336;SDS011;46978;50.288;28.624;2022-10-16T04:15:06;22.14;;;12.16;;
60336;SDS011;46978;50.288;28.624;2022-10-16T04:16:08;18.03;;;11.15;;
60336;SDS011;46978;50.288;28.624;2022-10-16T04:17:10;19.00;;;11.34;;
60336;SDS011;46978;50.288;28.624;2022-10-16T04:18:12;17.79;;;11.81;;
60336;SDS011;46978;50.288;28.624;2022-10-16T04:19:14;22.30;;;12.73;;
60336;SDS011;46978;50.288;28.624;2022-10-16T04:20:15;21.11;;;12.61;;
60336;SDS011;46978;50.288;28.624;2022-10-16T04:21:17;19.60;;;11.95;;
60336;SDS011;46978;50.288;28.624;2022-10-16T04:22:19;20.29;;;12.02;;
60336;SDS011;46978;50.288;28.624;2022-10-16T04:23:21;20.07;;;11.96;;
60336;SDS011;46978;50.288;28.624;2022-10-16T04:24:22;22.34;;;12.61;;
60336;SDS011;46978;50.288;28.624;2022-10-16T04:25:24;21.74;;;12.44;;
60336;SDS011;46978;50.288;28.624;2022-10-16T04:26:26;20.65;;;11.68;;
60336;SDS011;46978;50.288;28.624;2022-10-16T04:27:27;19.41;;;11.69;;
60336;SDS011;46978;50.288;28.624;2022-10-16T04:28:29;19.31;;;12.39;;
60336;SDS011;46978;50.288;28.624;2022-10-16T04:29:31;19.11;;;11.99;;
60336;SDS011;46978;50.288;28.624;2022-10-16T04:30:33;18.58;;;11.53;;
60336;SDS011;46978;50.288;28.624;2022-10-16T04:31:34;22.44;;;12.09;;
60336;SDS011;46978;50.288;28.624;2022-10-16T04:32:36;20.85;;;11.93;;
60336;SDS011;46978;50.288;28.624;2022-10-16T04:33:38;20.74;;;12.51;;
60336;SDS011;46978;50.288;28.624;2022-10-16T04:34:39;20.25;;;12.34;;
60336;SDS011;46978;50.288;28.624;2022-10-16T04:35:41;20.01;;;11.87;;
60336;SDS011;46978;50.288;28.624;2022-10-16T04:36:43;20.81;;;12.43;;
60336;SDS011;46978;50.288;28.624;2022-10-16T04:37:45;19.78;;;12.35;;
60336;SDS011;46978;50.288;28.624;2022-10-16T04:38:47;19.36;;;13.02;;
60336;SDS011;46978;50.288;28.624;2022-10-16T04:39:49;20.91;;;12.14;;
60336;SDS011;46978;50.288;28.624;2022-10-16T04:40:51;22.61;;;12.25;;
60336;SDS011;46978;50.288;28.624;2022-10-16T04:41:53;22.93;;;12.52;;
60336;SDS011;46978;50.288;28.624;2022-10-16T04:42:55;21.64;;;13.35;;
60336;SDS011;46978;50.288;28.624;2022-10-16T04:43:56;19.83;;;11.79;;
60336;SDS011;46978;50.288;28.624;2022-10-16T04:44:58;20.95;;;12.69;;
60336;SDS011;46978;50.288;28.624;2022-10-16T04:46:00;22.26;;;12.32;;
60336;SDS011;46978;50.288;28.624;2022-10-16T04:47:02;22.66;;;14.38;;
60336;SDS011;46978;50.288;28.624;2022-10-16T04:48:03;23.07;;;13.66;;
60336;SDS011;46978;50.288;28.624;2022-10-16T04:49:05;24.69;;;14.09;;
60336;SDS011;46978;50.288;28.624;2022-10-16T04:50:08;22.99;;;13.16;;
60336;SDS011;46978;50.288;28.624;2022-10-16T04:51:10;23.63;;;13.47;;
60336;SDS011;46978;50.288;28.624;2022-10-16T04:52:12;22.98;;;14.33;;
60336;SDS011;46978;50.288;28.624;2022-10-16T04:53:14;22.82;;;14.15;;
60336;SDS011;46978;50.288;28.624;2022-10-16T04:54:15;23.51;;;13.69;;
60336;SDS011;46978;50.288;28.624;2022-10-16T04:55:17;20.80;;;13.19;;
60336;SDS011;46978;50.288;28.624;2022-10-16T04:56:19;22.21;;;13.57;;
60336;SDS011;46978;50.288;28.624;2022-10-16T04:57:21;23.61;;;13.61;;
60336;SDS011;46978;50.288;28.624;2022-10-16T04:58:23;22.73;;;13.17;;
60336;SDS011;46978;50.288;28.624;2022-10-16T04:59:24;22.31;;;13.71;;
60336;SDS011;46978;50.288;28.624;2022-10-16T05:00:26;25.60;;;14.97;;
60336;SDS011;46978;50.288;28.624;2022-10-16T05:01:28;26.81;;;15.18;;
60336;SDS011;46978;50.288;28.624;2022-10-16T05:02:29;24.36;;;14.69;;
60336;SDS011;46978;50.288;28.624;2022-10-16T05:03:31;24.88;;;14.34;;
60336;SDS011;46978;50.288;28.624;2022-10-16T05:04:33;23.37;;;13.60;;
60336;SDS011;46978;50.288;28.624;2022-10-16T05:05:35;23.86;;;12.78;;
60336;SDS011;46978;50.288;28.624;2022-10-16T05:06:37;20.74;;;13.73;;
60336;SDS011;46978;50.288;28.624;2022-10-16T05:07:39;22.77;;;12.78;;
60336;SDS011;46978;50.288;28.624;2022-10-16T05:08:41;22.01;;;13.46;;
60336;SDS011;46978;50.288;28.624;2022-10-16T05:09:43;20.78;;;12.39;;
60336;SDS011;46978;50.288;28.624;2022-10-16T05:10:44;22.26;;;13.11;;
60336;SDS011;46978;50.288;28.624;2022-10-16T05:11:46;21.07;;;12.51;;
60336;SDS011;46978;50.288;28.624;2022-10-16T05:12:48;22.26;;;13.44;;
60336;SDS011;46978;50.288;28.624;2022-10-16T05:13:50;21.66;;;13.19;;
60336;SDS011;46978;50.288;28.624;2022-10-16T05:14:51;21.53;;;13.16;;
60336;SDS011;46978;50.288;28.624;2022-10-16T05:15:53;23.19;;;13.66;;
60336;SDS011;46978;50.288;28.624;2022-10-16T05:16:55;19.22;;;13.22;;
60336;SDS011;46978;50.288;28.624;2022-10-16T05:17:57;24.27;;;13.40;;
60336;SDS011;46978;50.288;28.624;2022-10-16T05:18:58;21.79;;;13.25;;
60336;SDS011;46978;50.288;28.624;2022-10-16T05:20:00;23.73;;;13.07;;
60336;SDS011;46978;50.288;28.624;2022-10-16T05:21:02;22.76;;;13.56;;
60336;SDS011;46978;50.288;28.624;2022-10-16T05:22:04;24.56;;;13.41;;
60336;SDS011;46978;50.288;28.624;2022-10-16T05:23:06;23.63;;;13.85;;
60336;SDS011;46978;50.288;28.624;2022-10-16T05:24:07;20.16;;;12.91;;
60336;SDS011;46978;50.288;28.624;2022-10-16T05:25:09;21.01;;;12.87;;
60336;SDS011;46978;50.288;28.624;2022-10-16T05:26:11;20.37;;;12.67;;
60336;SDS011;46978;50.288;28.624;2022-10-16T05:27:13;20.75;;;13.01;;
60336;SDS011;46978;50.288;28.624;2022-10-16T05:28:15;20.93;;;12.58;;
60336;SDS011;46978;50.288;28.624;2022-10-16T05:29:16;21.23;;;12.86;;
60336;SDS011;46978;50.288;28.624;2022-10-16T05:30:18;20.53;;;13.17;;
60336;SDS011;46978;50.288;28.624;2022-10-16T05:31:20;23.09;;;13.19;;
60336;SDS011;46978;50.288;28.624;2022-10-16T05:32:22;21.66;;;13.56;;
60336;SDS011;46978;50.288;28.624;2022-10-16T05:33:24;23.44;;;13.55;;
60336;SDS011;46978;50.288;28.624;2022-10-16T05:34:26;20.57;;;13.30;;
60336;SDS011;46978;50.288;28.624;2022-10-16T05:35:28;22.92;;;13.56;;
60336;SDS011;46978;50.288;28.624;2022-10-16T05:36:30;20.63;;;13.84;;
60336;SDS011;46978;50.288;28.624;2022-10-16T05:37:31;24.20;;;13.89;;
60336;SDS011;46978;50.288;28.624;2022-10-16T05:38:34;23.35;;;13.51;;
60336;SDS011;46978;50.288;28.624;2022-10-16T05:39:37;24.76;;;14.16;;
60336;SDS011;46978;50.288;28.624;2022-10-16T05:40:39;20.56;;;13.64;;
60336;SDS011;46978;50.288;28.624;2022-10-16T05:41:42;21.63;;;13.27;;
60336;SDS011;46978;50.288;28.624;2022-10-16T05:42:44;22.89;;;13.72;;
60336;SDS011;46978;50.288;28.624;2022-10-16T05:43:46;21.09;;;13.44;;
60336;SDS011;46978;50.288;28.624;2022-10-16T05:44:49;21.93;;;13.08;;
60336;SDS011;46978;50.288;28.624;2022-10-16T05:45:59;23.63;;;13.83;;
60336;SDS011;46978;50.288;28.624;2022-10-16T05:46:59;22.05;;;13.31;;
60336;SDS011;46978;50.288;28.624;2022-10-16T05:48:00;21.13;;;13.12;;
60336;SDS011;46978;50.288;28.624;2022-10-16T05:49:02;23.09;;;13.65;;
60336;SDS011;46978;50.288;28.624;2022-10-16T05:50:04;24.11;;;13.41;;
60336;SDS011;46978;50.288;28.624;2022-10-16T05:51:07;19.94;;;12.20;;
60336;SDS011;46978;50.288;28.624;2022-10-16T05:52:14;21.48;;;12.93;;
60336;SDS011;46978;50.288;28.624;2022-10-16T05:53:16;20.87;;;13.04;;
60336;SDS011;46978;50.288;28.624;2022-10-16T05:54:17;21.49;;;13.39;;
60336;SDS011;46978;50.288;28.624;2022-10-16T05:55:19;19.84;;;12.99;;
60336;SDS011;46978;50.288;28.624;2022-10-16T05:56:21;19.91;;;12.53;;
60336;SDS011;46978;50.288;28.624;2022-10-16T05:57:23;19.90;;;12.54;;
60336;SDS011;46978;50.288;28.624;2022-10-16T05:58:25;21.60;;;12.64;;
60336;SDS011;46978;50.288;28.624;2022-10-16T05:59:35;21.10;;;12.65;;
60336;SDS011;46978;50.288;28.624;2022-10-16T06:00:37;24.40;;;12.94;;
60336;SDS011;46978;50.288;28.624;2022-10-16T06:01:39;18.81;;;12.56;;
60336;SDS011;46978;50.288;28.624;2022-10-16T06:02:41;23.81;;;12.99;;
60336;SDS011;46978;50.288;28.624;2022-10-16T06:03:43;19.51;;;12.36;;
60336;SDS011;46978;50.288;28.624;2022-10-16T06:04:45;21.25;;;12.41;;
60336;SDS011;46978;50.288;28.624;2022-10-16T06:05:47;21.28;;;12.76;;
60336;SDS011;46978;50.288;28.624;2022-10-16T06:06:49;17.13;;;11.37;;
60336;SDS011;46978;50.288;28.624;2022-10-16T06:07:50;21.05;;;12.49;;
60336;SDS011;46978;50.288;28.624;2022-10-16T06:08:52;18.73;;;11.74;;
60336;SDS011;46978;50.288;28.624;2022-10-16T06:09:56;21.45;;;12.39;;
60336;SDS011;46978;50.288;28.624;2022-10-16T06:11:01;17.99;;;11.69;;
60336;SDS011;46978;50.288;28.624;2022-10-16T06:12:05;17.41;;;11.42;;
60336;SDS011;46978;50.288;28.624;2022-10-16T06:13:07;16.70;;;10.90;;
60336;SDS011;46978;50.288;28.624;2022-10-16T06:14:09;20.55;;;11.33;;
60336;SDS011;46978;50.288;28.624;2022-10-16T06:15:10;18.89;;;10.38;;
60336;SDS011;46978;50.288;28.624;2022-10-16T06:16:13;17.76;;;10.70;;
60336;SDS011;46978;50.288;28.624;2022-10-16T06:17:15;15.44;;;10.45;;
60336;SDS011;46978;50.288;28.624;2022-10-16T06:18:16;15.95;;;9.83;;
60336;SDS011;46978;50.288;28.624;2022-10-16T06:19:18;15.38;;;9.71;;
60336;SDS011;46978;50.288;28.624;2022-10-16T06:20:20;16.69;;;10.10;;
60336;SDS011;46978;50.288;28.624;2022-10-16T06:21:23;17.82;;;9.21;;
60336;SDS011;46978;50.288;28.624;2022-10-16T06:22:26;17.22;;;9.92;;